Time;durP1;ratioP1;P1;durP2;ratioP2;P2;SDS_P1;SDS_P2;PMS_P1;PMS_P2;Temp;Humidity;BMP_temperature;BMP_pressure;BME280_temperature;BME280_humidity;BME280_pressure;Samples;Min_cycle;Max_cycle;Signal;HPM_P1;HPM_P2
2022/04/14 00:01:25;;;;;;;1.85;0.45;;;;;;;27.15;30.81;101828.78;4937351;29;20061;-45
2022/04/14 00:03:54;;;;;;;1.73;0.63;;;;;;;27.14;30.80;101834.94;4937505;29;20024;-48
2022/04/14 00:06:22;;;;;;;2.30;0.57;;;;;;;27.17;30.88;101835.84;4937630;29;20027;-53
2022/04/14 00:08:53;;;;;;;1.70;0.75;;;;;;;27.15;30.98;101835.81;4937561;29;20474;-48
2022/04/14 00:11:22;;;;;;;0.98;0.43;;;;;;;27.08;30.95;101836.59;4937718;29;20032;-49
2022/04/14 00:13:50;;;;;;;1.67;0.55;;;;;;;27.13;30.83;101837.56;4937181;29;20034;-46
2022/04/14 00:16:19;;;;;;;1.80;0.63;;;;;;;27.15;30.99;101834.06;4937576;29;20031;-49
2022/04/14 00:18:47;;;;;;;2.08;0.75;;;;;;;27.12;30.94;101839.31;4937151;29;20123;-45
2022/04/14 00:21:16;;;;;;;1.38;0.40;;;;;;;27.07;30.85;101835.72;4919866;29;20031;-44
2022/04/14 00:23:45;;;;;;;1.15;0.40;;;;;;;27.05;30.98;101836.59;4937171;29;20036;-53
2022/04/14 00:26:13;;;;;;;4.95;0.63;;;;;;;27.03;30.84;101836.53;4937079;29;20477;-51
2022/04/14 00:28:42;;;;;;;1.50;0.70;;;;;;;27.03;31.07;101833.03;4920560;29;20035;-46
2022/04/14 00:31:10;;;;;;;1.00;0.47;;;;;;;26.98;31.08;101841.75;4936926;29;20537;-44
2022/04/14 00:33:39;;;;;;;1.73;0.50;;;;;;;27.00;31.10;101839.13;4936728;29;20083;-51
2022/04/14 00:36:07;;;;;;;1.13;0.52;;;;;;;26.98;30.86;101840.84;4920301;29;20098;-49
2022/04/14 00:38:35;;;;;;;1.40;0.57;;;;;;;26.96;30.95;101840.84;4937168;29;20047;-50
2022/04/14 00:41:04;;;;;;;0.90;0.75;;;;;;;26.96;30.89;101825.03;4937139;29;20039;-50
2022/04/14 00:43:34;;;;;;;0.88;0.60;;;;;;;27.04;30.81;101833.03;4937083;29;20027;-44
2022/04/14 00:46:03;;;;;;;1.08;0.55;;;;;;;27.06;31.11;101826.06;4920084;29;20024;-46
2022/04/14 00:48:33;;;;;;;2.30;0.60;;;;;;;27.01;30.95;101833.00;4936895;29;20036;-46
2022/04/14 00:51:03;;;;;;;1.50;0.60;;;;;;;27.00;31.05;101823.31;4936658;29;20123;-45
2022/04/14 00:53:30;;;;;;;1.38;0.63;;;;;;;27.03;30.92;101825.13;4936541;29;20035;-51
2022/04/14 00:55:59;;;;;;;1.83;0.82;;;;;;;27.00;31.14;101823.31;4936675;29;20040;-45
2022/04/14 00:58:27;;;;;;;1.80;0.73;;;;;;;26.97;30.88;101828.56;4936757;29;20027;-46
2022/04/14 01:00:56;;;;;;;2.65;0.60;;;;;;;26.96;30.76;101830.31;4919833;29;20119;-52
2022/04/14 01:03:24;;;;;;;0.82;0.65;;;;;;;26.97;31.00;101825.94;4936057;29;20059;-45
2022/04/14 01:05:54;;;;;;;2.10;0.70;;;;;;;26.98;30.95;101823.31;4936284;29;20437;-45
2022/04/14 01:08:24;;;;;;;1.30;0.60;;;;;;;27.03;30.66;101825.13;4936680;29;20091;-44
2022/04/14 01:10:53;;;;;;;0.82;0.40;;;;;;;27.11;30.72;101826.09;4919242;29;20039;-44
2022/04/14 01:13:21;;;;;;;1.35;0.70;;;;;;;27.05;30.73;101818.16;4936268;29;20110;-54
2022/04/14 01:15:50;;;;;;;0.90;0.40;;;;;;;27.00;30.78;101815.44;4936483;29;20038;-44
2022/04/14 01:18:18;;;;;;;0.98;0.43;;;;;;;27.08;30.98;101812.91;4936351;29;20039;-53
2022/04/14 01:20:46;;;;;;;1.48;0.90;;;;;;;27.02;30.69;101808.44;4936711;29;20086;-48
2022/04/14 01:23:16;;;;;;;1.50;0.75;;;;;;;27.02;30.81;101815.47;4936349;29;20036;-48
2022/04/14 01:25:45;;;;;;;1.08;0.45;;;;;;;26.99;30.65;101817.19;4936392;29;20038;-45
2022/04/14 01:28:12;;;;;;;2.10;0.52;;;;;;;26.98;30.87;101823.31;4936366;29;20039;-48
2022/04/14 01:30:41;;;;;;;1.38;0.50;;;;;;;27.02;30.77;101823.38;4935863;29;20526;-48
2022/04/14 01:33:09;;;;;;;1.85;0.60;;;;;;;26.97;30.81;101823.31;4936003;29;20107;-44
2022/04/14 01:35:38;;;;;;;0.82;0.57;;;;;;;26.97;30.78;101821.53;4919740;29;20493;-51
2022/04/14 01:38:07;;;;;;;1.45;0.55;;;;;;;26.96;30.67;101825.03;4936284;29;20027;-46
2022/04/14 01:40:35;;;;;;;1.35;0.60;;;;;;;26.90;31.01;101829.34;4935600;29;20035;-49
2022/04/14 01:43:04;;;;;;;0.38;0.30;;;;;;;26.93;30.96;101819.72;4936256;29;20512;-46
2022/04/14 01:45:32;;;;;;;1.25;0.40;;;;;;;26.99;30.80;101824.19;4936012;29;20035;-50
2022/04/14 01:48:01;;;;;;;1.30;0.70;;;;;;;26.96;30.98;101816.28;4935904;29;20046;-47
2022/04/14 01:50:30;;;;;;;1.15;0.60;;;;;;;26.94;30.96;101816.22;4936350;29;20478;-53
2022/04/14 01:52:58;;;;;;;2.17;0.95;;;;;;;26.99;30.94;101816.28;4935788;29;20043;-45
2022/04/14 01:55:27;;;;;;;1.92;0.63;;;;;;;27.02;30.68;101812.84;4936149;29;20057;-47
2022/04/14 01:57:55;;;;;;;0.75;0.40;;;;;;;27.10;30.48;101814.72;4935859;29;20042;-48
2022/04/14 02:00:24;;;;;;;1.35;0.60;;;;;;;26.97;30.78;101813.66;4935944;29;20106;-48
2022/04/14 02:02:53;;;;;;;1.25;0.32;;;;;;;26.99;30.93;101808.38;4936095;29;20116;-49
2022/04/14 02:05:21;;;;;;;0.75;0.40;;;;;;;26.97;30.74;101815.41;4935676;29;20038;-50
2022/04/14 02:07:50;;;;;;;1.08;0.47;;;;;;;26.90;30.70;101814.41;4935948;29;20036;-47
2022/04/14 02:10:18;;;;;;;1.90;0.57;;;;;;;26.89;30.71;101806.50;4935422;29;20486;-46
2022/04/14 02:12:47;;;;;;;1.75;0.65;;;;;;;26.99;30.60;101806.66;4935795;29;20039;-47
2022/04/14 02:15:16;;;;;;;1.45;0.52;;;;;;;27.02;30.69;101810.19;4936259;29;20466;-48
2022/04/14 02:17:43;;;;;;;0.93;0.47;;;;;;;27.02;30.67;101808.44;4935682;29;20074;-48
2022/04/14 02:20:12;;;;;;;2.35;0.65;;;;;;;27.00;30.62;101812.78;4935803;29;20393;-52
2022/04/14 02:22:41;;;;;;;1.17;0.52;;;;;;;26.97;30.72;101811.00;4935916;29;20040;-51
2022/04/14 02:25:10;;;;;;;3.90;0.55;;;;;;;26.95;30.65;101807.47;4935327;29;20490;-50
2022/04/14 02:27:39;;;;;;;0.93;0.40;;;;;;;26.98;30.74;101810.16;4935801;29;20067;-45
2022/04/14 02:30:08;;;;;;;0.68;0.40;;;;;;;27.01;30.73;101806.66;4935227;29;20107;-47
2022/04/14 02:32:37;;;;;;;0.98;0.47;;;;;;;26.95;30.59;101807.47;4935371;29;20075;-48
2022/04/14 02:35:05;;;;;;;1.42;0.50;;;;;;;26.94;30.58;101810.09;4935411;29;20034;-49
2022/04/14 02:37:34;;;;;;;1.80;0.50;;;;;;;26.90;30.83;101803.00;4935761;29;20110;-48
2022/04/14 02:40:03;;;;;;;3.10;0.40;;;;;;;26.97;30.55;101804.88;4918871;29;20024;-51
2022/04/14 02:42:31;;;;;;;2.33;0.70;;;;;;;26.99;30.52;101808.38;4935503;29;20043;-50
2022/04/14 02:45:00;;;;;;;1.13;0.40;;;;;;;27.01;30.43;101805.78;4935549;29;20083;-51
2022/04/14 02:47:28;;;;;;;1.38;0.50;;;;;;;26.99;30.27;101803.13;4935634;29;20039;-45
2022/04/14 02:49:56;;;;;;;0.80;0.40;;;;;;;26.95;30.71;101796.94;4935222;29;20107;-49
2022/04/14 02:52:25;;;;;;;1.10;0.47;;;;;;;27.01;30.53;101792.63;4935153;29;20055;-48
2022/04/14 02:54:53;;;;;;;1.17;0.57;;;;;;;26.97;30.47;101787.31;4936142;29;20087;-53
2022/04/14 02:57:22;;;;;;;0.63;0.30;;;;;;;26.95;30.75;101790.81;4939111;29;20461;-55
2022/04/14 02:59:51;;;;;;;0.75;0.40;;;;;;;26.92;30.72;101785.50;4939196;29;20027;-48
2022/04/14 03:02:20;;;;;;;1.23;0.50;;;;;;;26.94;30.58;101784.63;4939389;29;20469;-51
2022/04/14 03:04:48;;;;;;;0.68;0.40;;;;;;;26.96;30.57;101782.03;4939144;29;20042;-53
2022/04/14 03:07:17;;;;;;;0.98;0.38;;;;;;;26.91;30.76;101783.72;4921366;29;20028;-47
2022/04/14 03:09:45;;;;;;;1.20;0.55;;;;;;;26.91;30.46;101781.09;4938874;29;20509;-48
2022/04/14 03:12:14;;;;;;;0.75;0.40;;;;;;;26.86;30.61;101775.75;4938607;29;20051;-52
2022/04/14 03:14:43;;;;;;;1.90;0.70;;;;;;;26.90;30.75;101776.69;4938694;29;20028;-50
2022/04/14 03:17:12;;;;;;;0.35;0.28;;;;;;;26.86;30.67;101788.94;4938722;29;20032;-46
2022/04/14 03:19:40;;;;;;;0.75;0.30;;;;;;;26.88;30.73;101781.03;4938816;29;20020;-49
2022/04/14 03:22:09;;;;;;;1.58;0.47;;;;;;;26.85;30.63;101779.25;4938409;29;20050;-51
2022/04/14 03:24:38;;;;;;;0.98;0.60;;;;;;;26.86;30.55;101782.75;4938606;29;20078;-48
2022/04/14 03:27:06;;;;;;;1.15;0.77;;;;;;;26.80;30.62;101775.66;4938270;29;20119;-49
2022/04/14 03:29:35;;;;;;;1.27;0.55;;;;;;;26.81;30.48;101777.44;4938579;29;20024;-46
2022/04/14 03:32:03;;;;;;;1.42;0.73;;;;;;;26.83;30.84;101773.09;4938198;29;20086;-49
2022/04/14 03:34:32;;;;;;;1.15;0.40;;;;;;;26.86;30.47;101782.75;4938086;29;20036;-50
2022/04/14 03:36:59;;;;;;;0.57;0.40;;;;;;;26.71;30.98;101772.88;4938281;29;20028;-50
2022/04/14 03:39:28;;;;;;;1.38;0.50;;;;;;;26.73;30.79;101766.78;4938081;29;20398;-50
2022/04/14 03:41:57;;;;;;;0.57;0.22;;;;;;;26.71;30.83;101771.13;4921451;29;20166;-47
2022/04/14 03:44:25;;;;;;;2.30;0.60;;;;;;;26.73;30.66;101766.78;4938210;29;20039;-50
2022/04/14 03:46:54;;;;;;;0.90;0.50;;;;;;;26.77;30.80;101771.22;4937499;29;20079;-48
2022/04/14 03:49:22;;;;;;;1.13;0.45;;;;;;;26.78;30.62;101773.00;4937708;29;20063;-48
2022/04/14 03:51:54;;;;;;;0.82;0.60;;;;;;;26.74;30.81;101784.34;4937853;29;20114;-51
2022/04/14 03:54:22;;;;;;;3.47;0.60;;;;;;;26.72;30.74;101778.16;4938065;29;20031;-47
2022/04/14 03:56:51;;;;;;;1.40;0.60;;;;;;;26.75;30.78;101778.22;4921159;29;20382;-51
2022/04/14 03:59:20;;;;;;;0.45;0.38;;;;;;;26.74;30.71;101779.06;4937880;29;20035;-49
2022/04/14 04:01:48;;;;;;;0.57;0.50;;;;;;;26.72;30.71;101777.28;4937713;29;20122;-50
2022/04/14 04:04:17;;;;;;;1.25;0.50;;;;;;;26.65;30.79;101778.91;4937887;29;20039;-51
2022/04/14 04:06:45;;;;;;;0.50;0.38;;;;;;;26.70;30.87;101779.88;4936422;29;20545;-50
2022/04/14 04:09:14;;;;;;;1.15;0.50;;;;;;;26.68;30.79;101779.88;4937741;29;20438;-49
2022/04/14 04:11:42;;;;;;;1.20;0.52;;;;;;;26.70;30.82;101774.63;4937885;29;20020;-55
2022/04/14 04:14:10;;;;;;;1.55;0.60;;;;;;;26.73;30.67;101779.94;4937436;29;20028;-52
2022/04/14 04:16:38;;;;;;;1.00;0.47;;;;;;;26.75;30.53;101782.56;4937770;29;20036;-52
2022/04/14 04:19:07;;;;;;;1.08;0.50;;;;;;;26.72;30.97;101786.06;4937493;29;20445;-51
2022/04/14 04:21:35;;;;;;;2.45;0.40;;;;;;;26.67;30.77;101795.63;4937742;29;20059;-52
2022/04/14 04:24:04;;;;;;;2.00;0.52;;;;;;;26.73;30.86;101790.47;4937533;29;20112;-45
2022/04/14 04:26:32;;;;;;;0.55;0.38;;;;;;;26.79;30.52;101798.50;4937094;29;20031;-45
2022/04/14 04:29:01;;;;;;;1.02;0.40;;;;;;;26.67;30.97;101788.63;4937321;29;20031;-45
2022/04/14 04:31:30;;;;;;;2.13;0.70;;;;;;;26.71;30.77;101789.56;4937665;29;20361;-44
2022/04/14 04:33:58;;;;;;;0.93;0.40;;;;;;;26.68;30.84;101784.22;4937012;29;20058;-51
2022/04/14 04:36:27;;;;;;;1.48;0.57;;;;;;;26.71;30.60;101781.66;4920285;29;20036;-49
2022/04/14 04:38:58;;;;;;;1.30;0.40;;;;;;;26.75;30.55;101788.75;4937013;29;20032;-51
2022/04/14 04:41:26;;;;;;;0.38;0.30;;;;;;;26.71;30.56;101786.91;4936907;29;20116;-45
2022/04/14 04:43:55;;;;;;;0.88;0.45;;;;;;;26.75;30.48;101785.22;4936906;29;20031;-49
2022/04/14 04:46:22;;;;;;;1.70;0.40;;;;;;;26.70;30.93;101774.63;4936553;29;20027;-54
2022/04/14 04:48:51;;;;;;;1.92;0.68;;;;;;;26.63;30.93;101781.53;4936894;29;20032;-45
2022/04/14 04:51:20;;;;;;;0.68;0.43;;;;;;;26.69;30.77;101788.63;4936949;29;20024;-47
2022/04/14 04:53:48;;;;;;;0.75;0.68;;;;;;;26.72;30.77;101786.06;4936871;29;20024;-45
2022/04/14 04:56:18;;;;;;;1.67;0.52;;;;;;;26.72;30.72;101791.31;4936960;29;20447;-53
2022/04/14 04:58:47;;;;;;;1.60;0.65;;;;;;;26.63;30.66;101792.06;4936758;29;20393;-50
2022/04/14 05:01:15;;;;;;;0.85;0.50;;;;;;;26.71;30.76;101789.56;4919744;29;20063;-49
2022/04/14 05:03:44;;;;;;;1.50;0.50;;;;;;;26.76;30.44;101787.88;4936499;29;20034;-44
2022/04/14 05:06:12;;;;;;;0.85;0.43;;;;;;;26.65;30.57;101792.09;4936826;29;20062;-44
2022/04/14 05:08:41;;;;;;;1.25;0.45;;;;;;;26.67;30.91;101793.00;4936548;29;20035;-44
2022/04/14 05:11:09;;;;;;;0.88;0.40;;;;;;;26.69;30.76;101786.00;4936641;29;20042;-45
2022/04/14 05:13:38;;;;;;;1.33;0.60;;;;;;;26.65;30.73;101799.97;4935962;29;20032;-47
2022/04/14 05:16:07;;;;;;;0.30;0.30;;;;;;;26.67;30.77;101799.16;4936512;29;20110;-45
2022/04/14 05:18:34;;;;;;;1.15;0.38;;;;;;;26.52;30.81;101776.13;4935390;29;20513;-45
2022/04/14 05:21:02;;;;;;;1.63;0.60;;;;;;;26.64;30.85;101808.75;4936044;29;20094;-45
2022/04/14 05:23:30;;;;;;;0.77;0.40;;;;;;;26.59;30.81;101802.53;4935929;29;20402;-53
2022/04/14 05:25:58;;;;;;;1.88;0.50;;;;;;;26.60;30.73;101801.69;4919318;29;20107;-45
2022/04/14 05:28:25;;;;;;;1.05;0.40;;;;;;;26.60;30.53;101809.56;4936394;29;20035;-52
2022/04/14 05:30:53;;;;;;;0.85;0.47;;;;;;;26.57;30.87;101809.53;4919378;29;20032;-49
2022/04/14 05:33:22;;;;;;;0.75;0.40;;;;;;;26.57;30.79;101814.78;4919248;29;20059;-48
2022/04/14 05:35:50;;;;;;;1.25;0.40;;;;;;;26.51;31.07;101807.69;4935650;29;20031;-49
2022/04/14 05:38:22;;;;;;;1.80;0.93;;;;;;;26.59;30.74;101815.69;4936092;29;20082;-47
2022/04/14 05:40:51;;;;;;;1.02;0.50;;;;;;;26.60;30.75;101817.47;4936084;29;20032;-49
2022/04/14 05:43:21;;;;;;;0.52;0.40;;;;;;;26.54;30.69;101824.41;4935916;29;20039;-51
2022/04/14 05:45:50;;;;;;;0.80;0.40;;;;;;;26.47;30.99;101830.44;4919595;29;20064;-48
2022/04/14 05:48:19;;;;;;;1.00;0.32;;;;;;;26.42;30.94;101818.03;4936196;29;20048;-51
2022/04/14 05:50:47;;;;;;;1.52;0.47;;;;;;;26.50;31.01;101827.81;4918748;29;20036;-51
2022/04/14 05:53:16;;;;;;;0.60;0.35;;;;;;;26.52;30.82;101823.47;4935735;29;20031;-47
2022/04/14 05:55:45;;;;;;;0.95;0.28;;;;;;;26.52;30.92;101834.00;4936209;29;20442;-48
2022/04/14 05:58:13;;;;;;;0.75;0.60;;;;;;;26.59;30.55;101834.13;4935620;29;20047;-50
2022/04/14 06:00:42;;;;;;;0.63;0.40;;;;;;;26.63;30.83;101835.94;4935889;29;20036;-52
2022/04/14 06:03:11;;;;;;;0.43;0.30;;;;;;;26.64;30.68;101833.31;4935904;29;20027;-47
2022/04/14 06:05:39;;;;;;;0.30;0.30;;;;;;;26.61;30.49;101835.91;4936092;29;20024;-47
2022/04/14 06:08:08;;;;;;;1.35;0.30;;;;;;;26.64;30.78;101837.72;4936092;29;20490;-53
2022/04/14 06:10:37;;;;;;;1.80;0.60;;;;;;;26.68;30.67;101836.88;4935893;29;20036;-50
2022/04/14 06:13:05;;;;;;;1.73;0.50;;;;;;;26.73;30.60;101837.84;4935593;29;20482;-45
2022/04/14 06:15:33;;;;;;;0.57;0.28;;;;;;;26.76;30.74;101845.78;4935676;29;20036;-51
2022/04/14 06:18:01;;;;;;;0.82;0.38;;;;;;;26.73;30.70;101851.00;4936589;29;20027;-54
2022/04/14 06:20:29;;;;;;;1.25;0.45;;;;;;;26.73;30.55;101847.47;4935918;29;20114;-44
2022/04/14 06:22:58;;;;;;;1.13;0.40;;;;;;;26.72;30.64;101854.50;4935632;29;20386;-45
2022/04/14 06:25:27;;;;;;;0.80;0.30;;;;;;;26.68;30.68;101848.31;4935880;29;20028;-51
2022/04/14 06:27:56;;;;;;;2.05;0.40;;;;;;;26.67;30.83;101853.53;4935952;29;20060;-48
2022/04/14 06:30:25;;;;;;;0.63;0.30;;;;;;;26.67;31.34;101848.25;4937454;29;20028;-50
2022/04/14 06:33:04;;;;;;;1.30;0.50;;;;;;;26.68;31.01;101848.31;4939090;29;20519;-49
2022/04/14 06:35:33;;;;;;;2.35;0.50;;;;;;;26.65;31.28;101853.50;4939337;29;20031;-48
2022/04/14 06:38:00;;;;;;;1.02;0.52;;;;;;;26.69;31.12;101846.53;4939228;29;20023;-44
2022/04/14 06:40:29;;;;;;;1.67;0.47;;;;;;;26.71;31.19;101844.81;4922442;29;20031;-44
2022/04/14 06:42:57;;;;;;;1.15;0.57;;;;;;;26.72;31.33;101846.59;4939035;29;20466;-44
2022/04/14 06:45:26;;;;;;;1.98;0.70;;;;;;;26.74;31.48;101842.25;4938986;29;20036;-48
2022/04/14 06:47:54;;;;;;;0.57;0.30;;;;;;;26.75;31.61;101844.03;4938736;29;20039;-51
2022/04/14 06:50:23;;;;;;;0.93;0.43;;;;;;;26.80;31.52;101844.09;4939291;29;20024;-44
2022/04/14 06:52:52;;;;;;;0.82;0.30;;;;;;;26.81;31.59;101843.25;4939198;29;20130;-44
2022/04/14 06:55:21;;;;;;;1.10;0.40;;;;;;;26.84;31.64;101849.44;4922413;29;20063;-44
2022/04/14 06:57:50;;;;;;;2.80;0.60;;;;;;;26.86;31.67;101846.84;4939179;29;20019;-46
2022/04/14 07:00:21;;;;;;;1.73;0.38;;;;;;;26.91;31.66;101842.50;4939060;29;20036;-44
2022/04/14 07:02:49;;;;;;;1.17;0.47;;;;;;;26.97;31.36;101845.25;4938816;29;20031;-44
2022/04/14 07:05:18;;;;;;;1.80;0.52;;;;;;;26.99;31.92;101847.88;4922317;29;20374;-44
2022/04/14 07:07:46;;;;;;;0.65;0.30;;;;;;;27.01;31.60;101851.44;4938631;29;20028;-44
2022/04/14 07:10:15;;;;;;;1.52;0.50;;;;;;;27.05;31.49;101844.47;4938611;29;20028;-44
2022/04/14 07:12:45;;;;;;;3.08;0.60;;;;;;;27.08;31.49;101853.31;4938625;29;20028;-43
2022/04/14 07:15:14;;;;;;;3.72;0.52;;;;;;;27.13;31.67;101856.00;4938110;29;20044;-44
2022/04/14 07:17:42;;;;;;;1.27;0.40;;;;;;;27.15;31.47;101859.53;4937953;29;20394;-44
2022/04/14 07:20:11;;;;;;;0.95;0.50;;;;;;;27.20;31.48;101857.84;4938688;29;20485;-45
2022/04/14 07:22:50;;;;;;;0.77;0.40;;;;;;;27.24;31.49;101850.88;4938098;29;20031;-44
2022/04/14 07:25:21;;;;;;;4.40;0.50;;;;;;;27.22;31.71;101855.22;4938144;29;20094;-44
2022/04/14 07:27:50;;;;;;;1.83;0.60;;;;;;;27.29;31.48;101852.69;4938383;29;20037;-45
2022/04/14 07:30:18;;;;;;;2.08;0.75;;;;;;;27.36;31.53;101858.91;4937849;29;20039;-43
2022/04/14 07:32:47;;;;;;;1.85;0.50;;;;;;;27.38;31.73;101856.31;4937979;29;20515;-44
2022/04/14 07:35:16;;;;;;;0.47;0.32;;;;;;;27.43;31.54;101860.78;4938502;29;20102;-44
2022/04/14 07:37:45;;;;;;;1.15;0.30;;;;;;;27.43;31.49;101857.25;4938303;29;20115;-46
2022/04/14 07:40:13;;;;;;;1.80;0.38;;;;;;;27.50;31.31;101863.50;4938053;29;20067;-44
2022/04/14 07:42:45;;;;;;;1.70;0.38;;;;;;;27.56;31.51;101856.56;4921534;29;20032;-52
2022/04/14 07:45:13;;;;;;;1.67;0.63;;;;;;;27.60;31.47;101862.78;4937350;29;20108;-44
2022/04/14 07:47:43;;;;;;;1.38;0.50;;;;;;;27.62;31.57;101860.13;4937834;29;20103;-44
2022/04/14 07:50:12;;;;;;;1.90;0.70;;;;;;;27.65;31.46;101868.97;4937328;29;20047;-55
2022/04/14 07:52:45;;;;;;;4.88;0.57;;;;;;;27.69;31.61;101872.53;4937446;29;20059;-44
2022/04/14 07:55:17;;;;;;;1.30;0.52;;;;;;;27.74;31.65;101873.47;4937599;29;20063;-46
2022/04/14 07:57:46;;;;;;;2.25;0.73;;;;;;;27.78;31.43;101867.34;4937861;29;20035;-45
2022/04/14 08:00:14;;;;;;;3.58;0.50;;;;;;;27.84;31.53;101875.34;4937723;29;20035;-49
2022/04/14 08:02:53;;;;;;;0.73;0.38;;;;;;;27.86;31.45;101873.63;4937805;29;20030;-45
2022/04/14 08:05:27;;;;;;;2.55;0.50;;;;;;;27.92;31.63;101862.25;4937630;29;20028;-46
2022/04/14 08:07:55;;;;;;;3.15;0.50;;;;;;;27.97;31.37;101868.44;4937736;29;20023;-47
2022/04/14 08:10:24;;;;;;;7.45;1.30;;;;;;;28.01;31.20;101867.59;4937454;29;20035;-52
2022/04/14 08:12:53;;;;;;;19.23;5.63;;;;;;;28.05;31.01;101866.78;4937594;29;20036;-46
2022/04/14 08:15:20;;;;;;;64.10;16.23;;;;;;;28.15;30.95;101864.25;4920770;29;20444;-49
2022/04/14 08:17:49;;;;;;;102.40;27.95;;;;;;;28.15;31.09;101862.50;4937423;29;20071;-48
2022/04/14 08:20:18;;;;;;;107.05;32.67;;;;;;;28.17;31.13;101865.13;4937917;29;20075;-48
2022/04/14 08:22:48;;;;;;;99.00;26.58;;;;;;;28.20;31.02;101865.19;4937052;29;20158;-46
2022/04/14 08:25:20;;;;;;;75.13;20.33;;;;;;;28.18;31.11;101866.91;4937378;29;20032;-47
2022/04/14 08:27:49;;;;;;;67.97;18.13;;;;;;;28.22;31.02;101858.16;4937635;29;20036;-46
2022/04/14 08:30:18;;;;;;;56.15;15.30;;;;;;;28.25;30.84;101870.47;4937276;29;20038;-56
2022/04/14 08:32:48;;;;;;;40.30;11.57;;;;;;;28.25;30.86;101863.47;4937001;29;20044;-47
2022/04/14 08:35:18;;;;;;;34.55;9.98;;;;;;;28.27;30.83;101861.75;4937342;29;20023;-46
2022/04/14 08:37:48;;;;;;;30.98;8.93;;;;;;;28.30;30.74;101858.22;4937247;29;20067;-45
2022/04/14 08:40:18;;;;;;;29.95;7.65;;;;;;;28.29;30.99;101859.09;4920437;29;20038;-46
2022/04/14 08:43:02;;;;;;;24.25;6.50;;;;;;;28.33;31.02;101863.53;4937122;29;20039;-44
2022/04/14 08:45:32;;;;;;;21.02;6.07;;;;;;;28.34;31.03;101862.66;4937489;29;20059;-45
2022/04/14 08:48:02;;;;;;;21.33;5.68;;;;;;;28.37;31.08;101867.06;4936648;29;20039;-45
2022/04/14 08:50:32;;;;;;;14.73;4.28;;;;;;;28.38;31.06;101860.94;4937525;29;20019;-46
2022/04/14 08:53:01;;;;;;;14.13;5.05;;;;;;;28.40;31.01;101864.47;4936977;29;20373;-47
2022/04/14 08:55:30;;;;;;;16.77;4.25;;;;;;;28.43;31.00;101869.78;4920056;29;20036;-50
2022/04/14 08:57:58;;;;;;;14.45;4.32;;;;;;;28.44;31.18;101869.78;4920256;29;20027;-47
2022/04/14 09:00:27;;;;;;;10.43;2.72;;;;;;;28.45;30.98;101868.91;4936714;29;20074;-46
2022/04/14 09:02:57;;;;;;;10.18;2.80;;;;;;;28.48;31.01;101874.22;4936667;29;20465;-46
2022/04/14 09:05:26;;;;;;;8.75;3.08;;;;;;;28.47;31.05;101877.72;4936525;29;20095;-47
2022/04/14 09:07:55;;;;;;;6.18;2.35;;;;;;;28.52;30.91;101879.53;4936593;29;20119;-44
2022/04/14 09:10:23;;;;;;;10.05;2.15;;;;;;;28.53;31.10;101871.63;4919737;29;20032;-46
2022/04/14 09:12:52;;;;;;;6.35;1.83;;;;;;;28.54;31.03;101876.03;4936279;29;20035;-45
2022/04/14 09:15:21;;;;;;;7.65;2.22;;;;;;;28.59;30.98;101878.69;4936228;29;20028;-46
2022/04/14 09:17:49;;;;;;;3.97;2.20;;;;;;;28.58;30.95;101875.19;4919650;29;20067;-45
2022/04/14 09:20:37;;;;;;;7.07;1.80;;;;;;;28.64;30.89;101872.56;4936552;29;20028;-45
2022/04/14 09:23:27;;;;;;;7.03;2.20;;;;;;;28.69;31.12;101871.72;4936197;29;20060;-46
2022/04/14 09:26:06;;;;;;;5.20;1.33;;;;;;;28.71;31.00;101880.53;4920461;29;20067;-47
2022/04/14 09:28:34;;;;;;;6.82;1.95;;;;;;;28.71;30.97;101880.53;4936529;29;20036;-47
2022/04/14 09:31:05;;;;;;;4.63;1.73;;;;;;;28.72;30.81;101885.81;4919770;29;20485;-45
2022/04/14 09:33:35;;;;;;;11.63;2.03;;;;;;;28.75;31.19;101888.53;4935847;29;20505;-45
2022/04/14 09:36:17;;;;;;;7.55;1.67;;;;;;;28.75;30.99;101890.31;4936262;29;20081;-45
2022/04/14 09:38:56;;;;;;;6.90;2.00;;;;;;;28.77;31.05;101894.72;4936561;29;20385;-47
2022/04/14 09:41:48;;;;;;;3.83;1.33;;;;;;;28.76;30.80;101895.56;4935966;29;20047;-45
2022/04/14 09:44:17;;;;;;;3.97;1.63;;;;;;;28.83;30.77;101898.28;4935929;29;20035;-46
2022/04/14 09:46:48;;;;;;;7.95;1.23;;;;;;;28.83;30.83;101899.16;4918698;29;20398;-46
2022/04/14 09:49:18;;;;;;;3.47;1.48;;;;;;;28.83;30.78;101901.78;4936291;29;20141;-47
2022/04/14 09:51:48;;;;;;;3.85;1.23;;;;;;;28.88;30.79;101904.44;4935985;29;20043;-44
2022/04/14 09:54:18;;;;;;;4.35;1.10;;;;;;;28.92;30.69;101912.44;4936095;29;20044;-44
2022/04/14 09:56:52;;;;;;;3.50;1.38;;;;;;;28.94;30.67;101909.78;4935951;29;20032;-44
2022/04/14 09:59:22;;;;;;;9.00;1.90;;;;;;;29.00;30.62;101923.03;4936130;29;20034;-45
2022/04/14 10:02:08;;;;;;;3.63;1.10;;;;;;;29.01;30.45;101916.00;4935824;29;20398;-54
2022/04/14 10:04:39;;;;;;;3.90;1.13;;;;;;;29.05;30.25;101920.44;4936881;29;20028;-45
2022/04/14 10:07:11;;;;;;;3.97;1.95;;;;;;;29.05;30.37;101926.56;4939986;29;20059;-44
2022/04/14 10:09:41;;;;;;;3.13;1.05;;;;;;;29.02;30.33;101936.25;4940064;29;20039;-44
2022/04/14 10:12:18;;;;;;;3.72;1.20;;;;;;;29.00;30.54;101924.78;4940009;29;20474;-44
2022/04/14 10:15:08;;;;;;;3.63;1.20;;;;;;;29.05;30.18;101939.78;4939159;29;20074;-46
2022/04/14 10:17:38;;;;;;;5.70;1.70;;;;;;;29.03;30.23;101940.66;4938929;29;20043;-46
2022/04/14 10:20:09;;;;;;;3.72;1.42;;;;;;;29.02;30.11;101941.53;4939365;29;20028;-49
2022/04/14 10:22:38;;;;;;;4.70;1.30;;;;;;;29.03;30.23;101938.03;4939556;29;20066;-48
2022/04/14 10:25:07;;;;;;;3.78;1.38;;;;;;;29.03;30.09;101944.22;4940108;29;20023;-47
2022/04/14 10:27:38;;;;;;;3.17;0.88;;;;;;;28.95;30.13;101951.19;4939725;29;20054;-45
2022/04/14 10:30:06;;;;;;;3.40;0.95;;;;;;;28.92;30.11;101946.75;4923020;29;20035;-46
2022/04/14 10:32:36;;;;;;;2.08;0.80;;;;;;;28.88;30.17;101947.59;4939385;29;20131;-44
2022/04/14 10:35:08;;;;;;;2.72;1.00;;;;;;;28.84;30.39;101959.00;4940018;29;20382;-46
2022/04/14 10:37:40;;;;;;;3.50;1.15;;;;;;;28.84;30.33;101951.09;4939687;29;20371;-55
2022/04/14 10:40:10;;;;;;;3.03;1.10;;;;;;;28.79;30.29;101953.69;4939673;29;20032;-44
2022/04/14 10:42:39;;;;;;;2.83;0.80;;;;;;;28.77;30.25;101963.38;4922192;29;20063;-45
2022/04/14 10:45:23;;;;;;;2.58;1.05;;;;;;;28.74;30.52;101960.69;4922227;29;20036;-45
2022/04/14 10:47:53;;;;;;;1.40;0.90;;;;;;;28.76;30.19;101960.72;4939171;29;20079;-44
2022/04/14 10:50:23;;;;;;;2.95;1.30;;;;;;;28.68;30.54;101962.38;4921040;29;20020;-45
2022/04/14 10:53:12;;;;;;;3.60;1.08;;;;;;;28.73;30.31;101971.22;4871199;29;20068;-45
2022/04/14 10:55:43;;;;;;;3.47;1.10;;;;;;;28.73;30.21;101971.22;4880855;29;20044;-45
2022/04/14 10:58:30;;;;;;;3.08;1.02;;;;;;;28.74;30.29;101970.38;4884608;29;20032;-45
2022/04/14 11:00:59;;;;;;;5.25;1.30;;;;;;;28.74;30.09;101973.03;4897705;29;20499;-45
2022/04/14 11:03:47;;;;;;;1.33;0.80;;;;;;;28.72;29.96;101972.97;4900967;29;20036;-44
2022/04/14 11:06:47;;;;;;;2.85;0.85;;;;;;;28.72;30.20;101970.31;4896960;29;20036;-44
2022/04/14 11:09:53;;;;;;;5.05;1.10;;;;;;;28.71;30.11;101968.53;4899518;29;20052;-44
2022/04/14 11:12:42;;;;;;;2.92;1.10;;;;;;;28.66;30.23;101962.38;4876696;29;20099;-44
2022/04/14 11:15:12;;;;;;;3.75;1.05;;;;;;;28.71;29.91;101968.53;4900276;29;20036;-43
2022/04/14 11:17:42;;;;;;;4.57;1.02;;;;;;;28.65;30.06;101964.09;4901293;29;20037;-44
2022/04/14 11:20:16;;;;;;;3.40;1.30;;;;;;;28.63;29.92;101963.19;4900554;29;20076;-45
2022/04/14 11:23:24;;;;;;;3.72;1.40;;;;;;;28.64;30.02;101967.59;4900861;29;20444;-46
2022/04/14 11:25:54;;;;;;;2.75;0.98;;;;;;;28.60;30.17;101968.47;4900897;29;20028;-44
2022/04/14 11:28:25;;;;;;;3.03;0.90;;;;;;;28.59;30.19;101965.81;4900588;29;20494;-45
2022/04/14 11:30:55;;;;;;;5.75;1.20;;;;;;;28.56;30.38;101964.03;4900732;29;20036;-45
2022/04/14 11:33:34;;;;;;;5.13;1.42;;;;;;;28.60;30.14;101965.84;4900393;29;20132;-55
2022/04/14 11:36:13;;;;;;;6.03;1.77;;;;;;;28.63;30.00;101964.97;4916118;29;20426;-45
2022/04/14 11:39:09;;;;;;;4.20;1.90;;;;;;;28.66;29.99;101963.22;4918762;29;20423;-45